sensor_id;sensor_type;location;lat;lon;timestamp;pressure;altitude;pressure_sealevel;temperature;humidity
43364;BME280;40636;52.424;-1.948;2022-07-18T00:02:01;100538.13;;;16.91;62.91
43364;BME280;40636;52.424;-1.948;2022-07-18T00:04:30;100528.72;;;16.87;62.94
43364;BME280;40636;52.424;-1.948;2022-07-18T00:06:57;100535.09;;;16.82;61.25
43364;BME280;40636;52.424;-1.948;2022-07-18T00:09:24;100538.69;;;16.78;63.61
43364;BME280;40636;52.424;-1.948;2022-07-18T00:11:54;100533.16;;;16.78;62.56
43364;BME280;40636;52.424;-1.948;2022-07-18T00:14:22;100540.88;;;16.76;63.75
43364;BME280;40636;52.424;-1.948;2022-07-18T00:16:49;100531.47;;;16.71;63.31
43364;BME280;40636;52.424;-1.948;2022-07-18T00:19:17;100535.31;;;16.70;63.97
43364;BME280;40636;52.424;-1.948;2022-07-18T00:21:45;100530.06;;;16.64;63.99
43364;BME280;40636;52.424;-1.948;2022-07-18T00:24:12;100521.75;;;16.59;64.11
43364;BME280;40636;52.424;-1.948;2022-07-18T00:26:38;100527.00;;;16.55;63.56
43364;BME280;40636;52.424;-1.948;2022-07-18T00:29:06;100525.91;;;16.51;65.82
43364;BME280;40636;52.424;-1.948;2022-07-18T00:31:33;100533.91;;;16.47;65.52
43364;BME280;40636;52.424;-1.948;2022-07-18T00:34:00;100520.34;;;16.46;65.74
43364;BME280;40636;52.424;-1.948;2022-07-18T00:36:28;100523.38;;;16.39;66.19
43364;BME280;40636;52.424;-1.948;2022-07-18T00:38:56;100526.97;;;16.35;66.22
43364;BME280;40636;52.424;-1.948;2022-07-18T00:41:24;100516.47;;;16.32;63.25
43364;BME280;40636;52.424;-1.948;2022-07-18T00:43:51;100515.06;;;16.29;62.77
43364;BME280;40636;52.424;-1.948;2022-07-18T00:46:23;100522.53;;;16.29;65.21
43364;BME280;40636;52.424;-1.948;2022-07-18T00:48:50;100518.66;;;16.35;64.00
43364;BME280;40636;52.424;-1.948;2022-07-18T00:51:20;100512.28;;;16.34;63.51
43364;BME280;40636;52.424;-1.948;2022-07-18T00:53:48;100512.88;;;16.31;65.20
43364;BME280;40636;52.424;-1.948;2022-07-18T00:56:19;100515.88;;;16.35;63.86
43364;BME280;40636;52.424;-1.948;2022-07-18T00:58:47;100515.88;;;16.35;64.69
43364;BME280;40636;52.424;-1.948;2022-07-18T01:01:14;100514.81;;;16.31;63.57
43364;BME280;40636;52.424;-1.948;2022-07-18T01:03:59;100509.53;;;16.24;64.70
43364;BME280;40636;52.424;-1.948;2022-07-18T01:06:26;100509.53;;;16.24;64.26
43364;BME280;40636;52.424;-1.948;2022-07-18T01:08:54;100513.41;;;16.18;65.12
43364;BME280;40636;52.424;-1.948;2022-07-18T01:11:21;100505.34;;;16.11;64.66
43364;BME280;40636;52.424;-1.948;2022-07-18T01:13:49;100506.16;;;16.02;62.43
43364;BME280;40636;52.424;-1.948;2022-07-18T01:16:17;100499.78;;;15.96;64.14
43364;BME280;40636;52.424;-1.948;2022-07-18T01:18:48;100503.06;;;15.93;61.74
43364;BME280;40636;52.424;-1.948;2022-07-18T01:21:16;100504.72;;;15.89;64.64
43364;BME280;40636;52.424;-1.948;2022-07-18T01:23:44;100501.94;;;15.79;65.46
43364;BME280;40636;52.424;-1.948;2022-07-18T01:26:12;100499.13;;;15.68;65.21
43364;BME280;40636;52.424;-1.948;2022-07-18T01:28:40;100504.66;;;15.68;66.36
43364;BME280;40636;52.424;-1.948;2022-07-18T01:31:07;100493.59;;;15.68;64.55
43364;BME280;40636;52.424;-1.948;2022-07-18T01:33:35;100493.03;;;15.66;66.10
43364;BME280;40636;52.424;-1.948;2022-07-18T01:36:04;100492.47;;;15.64;66.37
43364;BME280;40636;52.424;-1.948;2022-07-18T01:38:33;100503.78;;;15.63;66.04
43364;BME280;40636;52.424;-1.948;2022-07-18T01:41:00;100488.56;;;15.60;64.08
43364;BME280;40636;52.424;-1.948;2022-07-18T01:43:27;100498.25;;;15.63;66.50
43364;BME280;40636;52.424;-1.948;2022-07-18T01:45:55;100492.44;;;15.59;64.60
43364;BME280;40636;52.424;-1.948;2022-07-18T01:48:22;100491.84;;;15.57;67.12
43364;BME280;40636;52.424;-1.948;2022-07-18T01:50:50;100495.19;;;15.54;65.77
43364;BME280;40636;52.424;-1.948;2022-07-18T01:53:18;100489.34;;;15.51;65.41
43364;BME280;40636;52.424;-1.948;2022-07-18T01:55:45;100482.41;;;15.48;66.88
43364;BME280;40636;52.424;-1.948;2022-07-18T01:58:13;100490.97;;;15.46;67.41
43364;BME280;40636;52.424;-1.948;2022-07-18T02:00:40;100479.59;;;15.38;67.41
43364;BME280;40636;52.424;-1.948;2022-07-18T02:03:07;100477.09;;;15.31;65.02
43364;BME280;40636;52.424;-1.948;2022-07-18T02:05:34;100474.34;;;15.31;66.47
43364;BME280;40636;52.424;-1.948;2022-07-18T02:08:01;100463.78;;;15.28;65.03
43364;BME280;40636;52.424;-1.948;2022-07-18T02:10:28;100469.03;;;15.25;64.36
43364;BME280;40636;52.424;-1.948;2022-07-18T02:12:55;100463.50;;;15.25;62.66
43364;BME280;40636;52.424;-1.948;2022-07-18T02:15:22;100462.97;;;15.28;64.59
43364;BME280;40636;52.424;-1.948;2022-07-18T02:17:49;100459.38;;;15.27;66.10
43364;BME280;40636;52.424;-1.948;2022-07-18T02:20:16;100460.47;;;15.26;66.05
43364;BME280;40636;52.424;-1.948;2022-07-18T02:22:44;100465.16;;;15.26;64.99
43364;BME280;40636;52.424;-1.948;2022-07-18T02:25:11;100456.03;;;15.25;64.92
43364;BME280;40636;52.424;-1.948;2022-07-18T02:27:39;100456.59;;;15.27;67.11
43364;BME280;40636;52.424;-1.948;2022-07-18T02:30:08;100457.97;;;15.25;62.95
43364;BME280;40636;52.424;-1.948;2022-07-18T02:32:35;100453.56;;;15.29;63.50
43364;BME280;40636;52.424;-1.948;2022-07-18T02:35:06;100449.44;;;15.31;64.96
43364;BME280;40636;52.424;-1.948;2022-07-18T02:37:34;100448.34;;;15.32;62.41
43364;BME280;40636;52.424;-1.948;2022-07-18T02:40:02;100443.09;;;15.36;62.43
43364;BME280;40636;52.424;-1.948;2022-07-18T02:42:29;100435.06;;;15.39;61.61
43364;BME280;40636;52.424;-1.948;2022-07-18T02:44:55;100446.72;;;15.46;62.19
43364;BME280;40636;52.424;-1.948;2022-07-18T02:47:22;100448.97;;;15.50;60.75
43364;BME280;40636;52.424;-1.948;2022-07-18T02:49:49;100443.44;;;15.50;59.48
43364;BME280;40636;52.424;-1.948;2022-07-18T02:52:16;100451.47;;;15.56;60.35
43364;BME280;40636;52.424;-1.948;2022-07-18T02:54:43;100438.22;;;15.58;59.18
43364;BME280;40636;52.424;-1.948;2022-07-18T02:57:10;100438.75;;;15.60;60.38
43364;BME280;40636;52.424;-1.948;2022-07-18T02:59:37;100444.84;;;15.62;57.90
43364;BME280;40636;52.424;-1.948;2022-07-18T03:02:04;100435.78;;;15.67;59.85
43364;BME280;40636;52.424;-1.948;2022-07-18T03:04:31;100437.97;;;15.65;58.81
43364;BME280;40636;52.424;-1.948;2022-07-18T03:06:58;100436.84;;;15.66;56.75
43364;BME280;40636;52.424;-1.948;2022-07-18T03:09:25;100433.56;;;15.69;60.24
43364;BME280;40636;52.424;-1.948;2022-07-18T03:11:55;100432.38;;;15.60;57.62
43364;BME280;40636;52.424;-1.948;2022-07-18T03:14:22;100437.09;;;15.59;60.90
43364;BME280;40636;52.424;-1.948;2022-07-18T03:16:50;100434.84;;;15.51;61.55
43364;BME280;40636;52.424;-1.948;2022-07-18T03:19:17;100431.25;;;15.45;60.63
43364;BME280;40636;52.424;-1.948;2022-07-18T03:21:44;100433.72;;;15.42;61.25
43364;BME280;40636;52.424;-1.948;2022-07-18T03:24:11;100432.88;;;15.36;62.95
43364;BME280;40636;52.424;-1.948;2022-07-18T03:26:41;100426.75;;;15.29;64.08
43364;BME280;40636;52.424;-1.948;2022-07-18T03:29:09;100428.13;;;15.21;63.50
43364;BME280;40636;52.424;-1.948;2022-07-18T03:31:37;100431.66;;;15.17;64.87
43364;BME280;40636;52.424;-1.948;2022-07-18T03:34:04;100425.28;;;15.11;62.06
43364;BME280;40636;52.424;-1.948;2022-07-18T03:36:31;100421.94;;;15.04;64.51
43364;BME280;40636;52.424;-1.948;2022-07-18T03:38:58;100427.44;;;14.99;66.42
43364;BME280;40636;52.424;-1.948;2022-07-18T03:41:25;100423.53;;;14.90;64.80
43364;BME280;40636;52.424;-1.948;2022-07-18T03:43:52;100418.22;;;14.83;64.78
43364;BME280;40636;52.424;-1.948;2022-07-18T03:46:19;100414.91;;;14.81;63.21
43364;BME280;40636;52.424;-1.948;2022-07-18T03:48:46;100415.13;;;14.75;66.41
43364;BME280;40636;52.424;-1.948;2022-07-18T03:51:13;100412.34;;;14.69;65.41
43364;BME280;40636;52.424;-1.948;2022-07-18T03:53:40;100414.53;;;14.67;65.30
43364;BME280;40636;52.424;-1.948;2022-07-18T03:56:07;100409.25;;;14.66;63.98
43364;BME280;40636;52.424;-1.948;2022-07-18T03:58:34;100400.66;;;14.62;66.76
43364;BME280;40636;52.424;-1.948;2022-07-18T04:01:02;100396.81;;;14.58;65.20
43364;BME280;40636;52.424;-1.948;2022-07-18T04:03:29;100394.56;;;14.55;65.21
43364;BME280;40636;52.424;-1.948;2022-07-18T04:05:56;100395.91;;;14.53;65.22
43364;BME280;40636;52.424;-1.948;2022-07-18T04:08:23;100389.25;;;14.49;67.28
43364;BME280;40636;52.424;-1.948;2022-07-18T04:10:50;100389.50;;;14.47;67.99
43364;BME280;40636;52.424;-1.948;2022-07-18T04:13:17;100383.72;;;14.49;68.33
43364;BME280;40636;52.424;-1.948;2022-07-18T04:15:44;100382.84;;;14.43;67.27
43364;BME280;40636;52.424;-1.948;2022-07-18T04:18:11;100386.44;;;14.43;68.20
43364;BME280;40636;52.424;-1.948;2022-07-18T04:20:38;100388.94;;;14.45;66.37
43364;BME280;40636;52.424;-1.948;2022-07-18T04:23:09;100388.44;;;14.48;68.81
43364;BME280;40636;52.424;-1.948;2022-07-18T04:25:40;100385.97;;;14.52;68.25
43364;BME280;40636;52.424;-1.948;2022-07-18T04:28:12;100386.56;;;14.54;66.48
43364;BME280;40636;52.424;-1.948;2022-07-18T04:30:40;100387.41;;;14.59;67.83
43364;BME280;40636;52.424;-1.948;2022-07-18T04:33:09;100382.44;;;14.61;67.25
43364;BME280;40636;52.424;-1.948;2022-07-18T04:35:37;100387.41;;;14.59;68.35
43364;BME280;40636;52.424;-1.948;2022-07-18T04:38:07;100382.47;;;14.66;68.27
43364;BME280;40636;52.424;-1.948;2022-07-18T04:40:35;100378.06;;;14.70;69.41
43364;BME280;40636;52.424;-1.948;2022-07-18T04:43:03;100380.31;;;14.74;66.53
43364;BME280;40636;52.424;-1.948;2022-07-18T04:45:30;100385.59;;;14.80;68.19
43364;BME280;40636;52.424;-1.948;2022-07-18T04:47:57;100382.59;;;14.87;67.02
43364;BME280;40636;52.424;-1.948;2022-07-18T04:50:24;100379.31;;;14.90;65.89
43364;BME280;40636;52.424;-1.948;2022-07-18T04:52:52;100376.59;;;15.00;67.37
43364;BME280;40636;52.424;-1.948;2022-07-18T04:55:20;100377.72;;;15.04;65.46
43364;BME280;40636;52.424;-1.948;2022-07-18T04:57:48;100376.63;;;15.10;67.01
43364;BME280;40636;52.424;-1.948;2022-07-18T05:00:18;100373.06;;;15.20;65.61
43364;BME280;40636;52.424;-1.948;2022-07-18T05:02:48;100369.78;;;15.28;66.32
43364;BME280;40636;52.424;-1.948;2022-07-18T05:05:16;100368.97;;;15.38;65.39
43364;BME280;40636;52.424;-1.948;2022-07-18T05:07:44;100365.13;;;15.44;66.00
43364;BME280;40636;52.424;-1.948;2022-07-18T05:10:13;100363.75;;;15.52;64.45
43364;BME280;40636;52.424;-1.948;2022-07-18T05:12:42;100361.84;;;15.62;67.21
43364;BME280;40636;52.424;-1.948;2022-07-18T05:15:12;100357.19;;;15.73;67.25
43364;BME280;40636;52.424;-1.948;2022-07-18T05:17:39;100365.50;;;15.83;66.67
43364;BME280;40636;52.424;-1.948;2022-07-18T05:20:08;100353.31;;;15.89;68.20
43364;BME280;40636;52.424;-1.948;2022-07-18T05:22:36;100362.19;;;15.96;69.35
43364;BME280;40636;52.424;-1.948;2022-07-18T05:25:05;100355.81;;;16.01;68.46
43364;BME280;40636;52.424;-1.948;2022-07-18T05:27:32;100351.69;;;16.09;67.18
43364;BME280;40636;52.424;-1.948;2022-07-18T05:30:03;100345.03;;;16.15;67.40
43364;BME280;40636;52.424;-1.948;2022-07-18T05:32:31;100346.41;;;16.22;66.00
43364;BME280;40636;52.424;-1.948;2022-07-18T05:34:57;100343.63;;;16.28;67.78
43364;BME280;40636;52.424;-1.948;2022-07-18T05:37:25;100347.78;;;16.35;66.64
43364;BME280;40636;52.424;-1.948;2022-07-18T05:39:51;100340.00;;;16.42;65.46
43364;BME280;40636;52.424;-1.948;2022-07-18T05:42:20;100341.94;;;16.47;67.09
43364;BME280;40636;52.424;-1.948;2022-07-18T05:45:08;100336.94;;;16.54;66.70
43364;BME280;40636;52.424;-1.948;2022-07-18T05:47:36;100336.63;;;16.66;66.53
43364;BME280;40636;52.424;-1.948;2022-07-18T05:50:06;100329.16;;;16.71;66.61
43364;BME280;40636;52.424;-1.948;2022-07-18T05:52:36;100323.03;;;16.80;67.00
43364;BME280;40636;52.424;-1.948;2022-07-18T05:55:04;100322.41;;;16.93;66.76
43364;BME280;40636;52.424;-1.948;2022-07-18T05:57:31;100323.47;;;17.12;66.28
43364;BME280;40636;52.424;-1.948;2022-07-18T05:59:58;100320.28;;;17.34;65.46
43364;BME280;40636;52.424;-1.948;2022-07-18T06:02:25;100316.25;;;17.56;64.87
43364;BME280;40636;52.424;-1.948;2022-07-18T06:04:54;100319.75;;;17.77;65.01
43364;BME280;40636;52.424;-1.948;2022-07-18T06:07:41;100322.63;;;18.00;64.21
43364;BME280;40636;52.424;-1.948;2022-07-18T06:10:08;100321.88;;;18.19;61.90
43364;BME280;40636;52.424;-1.948;2022-07-18T06:12:35;100315.59;;;18.37;61.09
43364;BME280;40636;52.424;-1.948;2022-07-18T06:15:03;100317.94;;;18.54;59.51
43364;BME280;40636;52.424;-1.948;2022-07-18T06:17:31;100316.97;;;18.69;58.21
43364;BME280;40636;52.424;-1.948;2022-07-18T06:19:58;100315.41;;;18.82;57.02
43364;BME280;40636;52.424;-1.948;2022-07-18T06:22:25;100318.81;;;18.97;56.47
43364;BME280;40636;52.424;-1.948;2022-07-18T06:24:53;100316.69;;;19.13;56.28
43364;BME280;40636;52.424;-1.948;2022-07-18T06:27:20;100320.38;;;19.27;55.65
43364;BME280;40636;52.424;-1.948;2022-07-18T06:29:47;100320.69;;;19.45;54.61
43364;BME280;40636;52.424;-1.948;2022-07-18T06:32:14;100315.75;;;19.61;52.12
43364;BME280;40636;52.424;-1.948;2022-07-18T06:34:41;100312.84;;;19.85;51.08
43364;BME280;40636;52.424;-1.948;2022-07-18T06:37:08;100314.81;;;20.03;52.62
43364;BME280;40636;52.424;-1.948;2022-07-18T06:39:35;100321.75;;;20.19;51.39
43364;BME280;40636;52.424;-1.948;2022-07-18T06:42:02;100313.75;;;20.32;51.06
43364;BME280;40636;52.424;-1.948;2022-07-18T06:44:29;100311.72;;;20.51;50.94
43364;BME280;40636;52.424;-1.948;2022-07-18T06:46:56;100311.34;;;20.71;50.47
43364;BME280;40636;52.424;-1.948;2022-07-18T06:49:27;100305.44;;;20.87;49.09
43364;BME280;40636;52.424;-1.948;2022-07-18T06:51:54;100299.25;;;21.03;48.17
43364;BME280;40636;52.424;-1.948;2022-07-18T06:54:29;100314.81;;;21.18;49.18
43364;BME280;40636;52.424;-1.948;2022-07-18T06:56:56;100307.84;;;21.29;49.11
43364;BME280;40636;52.424;-1.948;2022-07-18T06:59:25;100306.22;;;21.42;47.42
43364;BME280;40636;52.424;-1.948;2022-07-18T07:01:53;100309.91;;;21.51;48.44
43364;BME280;40636;52.424;-1.948;2022-07-18T07:04:20;100313.41;;;21.57;44.66
43364;BME280;40636;52.424;-1.948;2022-07-18T07:06:47;100315.97;;;21.67;46.34
43364;BME280;40636;52.424;-1.948;2022-07-18T07:09:14;100311.44;;;21.80;43.16
43364;BME280;40636;52.424;-1.948;2022-07-18T07:11:41;100316.34;;;21.97;44.61
43364;BME280;40636;52.424;-1.948;2022-07-18T07:14:08;100309.56;;;22.12;43.65
43364;BME280;40636;52.424;-1.948;2022-07-18T07:16:35;100313.97;;;22.26;44.43
43364;BME280;40636;52.424;-1.948;2022-07-18T07:19:02;100310.25;;;22.40;43.71
43364;BME280;40636;52.424;-1.948;2022-07-18T07:21:29;100313.41;;;22.47;45.11
43364;BME280;40636;52.424;-1.948;2022-07-18T07:23:57;100315.59;;;22.59;45.39
43364;BME280;40636;52.424;-1.948;2022-07-18T07:26:26;100312.84;;;22.67;45.32
43364;BME280;40636;52.424;-1.948;2022-07-18T07:28:52;100305.94;;;22.73;42.61
43364;BME280;40636;52.424;-1.948;2022-07-18T07:31:19;100315.34;;;22.77;42.88
43364;BME280;40636;52.424;-1.948;2022-07-18T07:33:46;100317.03;;;22.87;43.53
43364;BME280;40636;52.424;-1.948;2022-07-18T07:36:14;100312.50;;;23.00;44.39
43364;BME280;40636;52.424;-1.948;2022-07-18T07:38:41;100314.81;;;23.15;43.49
43364;BME280;40636;52.424;-1.948;2022-07-18T07:41:07;100319.97;;;23.31;43.65
43364;BME280;40636;52.424;-1.948;2022-07-18T07:43:34;100314.91;;;23.50;41.76
43364;BME280;40636;52.424;-1.948;2022-07-18T07:46:05;100320.81;;;23.57;42.76
43364;BME280;40636;52.424;-1.948;2022-07-18T07:48:32;100318.34;;;23.55;40.79
43364;BME280;40636;52.424;-1.948;2022-07-18T07:50:59;100319.69;;;23.58;41.37
43364;BME280;40636;52.424;-1.948;2022-07-18T07:53:26;100313.91;;;23.63;40.63
43364;BME280;40636;52.424;-1.948;2022-07-18T07:55:53;100320.03;;;23.74;40.23
43364;BME280;40636;52.424;-1.948;2022-07-18T07:58:22;100328.09;;;23.84;40.30
43364;BME280;40636;52.424;-1.948;2022-07-18T08:00:49;100321.66;;;23.92;41.37
43364;BME280;40636;52.424;-1.948;2022-07-18T08:03:16;100326.63;;;24.04;40.02
43364;BME280;40636;52.424;-1.948;2022-07-18T08:05:46;100317.50;;;24.16;38.69
43364;BME280;40636;52.424;-1.948;2022-07-18T08:08:13;100322.78;;;24.26;39.21
43364;BME280;40636;52.424;-1.948;2022-07-18T08:10:41;100318.47;;;24.28;39.42
43364;BME280;40636;52.424;-1.948;2022-07-18T08:13:11;100320.63;;;24.40;38.85
43364;BME280;40636;52.424;-1.948;2022-07-18T08:15:38;100311.03;;;24.50;39.62
43364;BME280;40636;52.424;-1.948;2022-07-18T08:18:05;100317.78;;;24.58;39.90
43364;BME280;40636;52.424;-1.948;2022-07-18T08:20:32;100313.28;;;24.65;39.99
43364;BME280;40636;52.424;-1.948;2022-07-18T08:23:05;100306.81;;;24.73;39.69
43364;BME280;40636;52.424;-1.948;2022-07-18T08:25:36;100307.59;;;24.83;38.29
43364;BME280;40636;52.424;-1.948;2022-07-18T08:28:04;100309.53;;;24.91;38.78
43364;BME280;40636;52.424;-1.948;2022-07-18T08:30:31;100306.69;;;24.99;39.39
43364;BME280;40636;52.424;-1.948;2022-07-18T08:32:59;100307.50;;;25.09;39.29
43364;BME280;40636;52.424;-1.948;2022-07-18T08:35:28;100306.28;;;25.18;38.03
43364;BME280;40636;52.424;-1.948;2022-07-18T08:37:56;100296.84;;;25.23;38.53
43364;BME280;40636;52.424;-1.948;2022-07-18T08:40:24;100297.94;;;25.30;37.43
43364;BME280;40636;52.424;-1.948;2022-07-18T08:42:53;100297.03;;;25.39;38.59
43364;BME280;40636;52.424;-1.948;2022-07-18T08:45:42;100294.50;;;25.46;39.84
43364;BME280;40636;52.424;-1.948;2022-07-18T08:48:13;100289.84;;;25.50;38.58
43364;BME280;40636;52.424;-1.948;2022-07-18T08:50:45;100288.25;;;25.61;38.15
43364;BME280;40636;52.424;-1.948;2022-07-18T08:53:13;100289.00;;;25.70;36.59
43364;BME280;40636;52.424;-1.948;2022-07-18T08:55:41;100294.28;;;25.80;37.50
43364;BME280;40636;52.424;-1.948;2022-07-18T08:58:08;100292.53;;;25.88;37.93
43364;BME280;40636;52.424;-1.948;2022-07-18T09:00:57;100284.81;;;25.97;38.37
43364;BME280;40636;52.424;-1.948;2022-07-18T09:03:25;100289.53;;;26.05;37.47
43364;BME280;40636;52.424;-1.948;2022-07-18T09:06:07;100279.84;;;26.15;38.28
43364;BME280;40636;52.424;-1.948;2022-07-18T09:08:34;100283.38;;;26.24;36.52
43364;BME280;40636;52.424;-1.948;2022-07-18T09:11:03;100288.22;;;26.36;36.37
43364;BME280;40636;52.424;-1.948;2022-07-18T09:16:10;100286.00;;;26.42;37.80
43364;BME280;40636;52.424;-1.948;2022-07-18T09:18:44;100286.53;;;26.44;36.85
43364;BME280;40636;52.424;-1.948;2022-07-18T09:21:17;100284.75;;;26.51;35.28
43364;BME280;40636;52.424;-1.948;2022-07-18T09:23:46;100279.03;;;26.60;35.51
43364;BME280;40636;52.424;-1.948;2022-07-18T09:26:41;100278.56;;;26.70;35.55
43364;BME280;40636;52.424;-1.948;2022-07-18T09:29:14;100282.44;;;26.78;35.40
43364;BME280;40636;52.424;-1.948;2022-07-18T09:31:53;100289.47;;;26.84;35.90
43364;BME280;40636;52.424;-1.948;2022-07-18T09:34:36;100282.44;;;26.90;36.53
43364;BME280;40636;52.424;-1.948;2022-07-18T09:37:04;100287.03;;;26.95;36.15
43364;BME280;40636;52.424;-1.948;2022-07-18T09:39:31;100287.16;;;26.98;36.08
43364;BME280;40636;52.424;-1.948;2022-07-18T09:42:16;100285.50;;;27.10;35.77
43364;BME280;40636;52.424;-1.948;2022-07-18T09:44:57;100282.81;;;27.13;36.37
43364;BME280;40636;52.424;-1.948;2022-07-18T09:47:25;100284.44;;;27.14;33.77
43364;BME280;40636;52.424;-1.948;2022-07-18T09:49:52;100279.88;;;27.22;36.31
43364;BME280;40636;52.424;-1.948;2022-07-18T09:52:19;100281.94;;;27.25;34.64
43364;BME280;40636;52.424;-1.948;2022-07-18T09:54:46;100280.56;;;27.31;35.99
43364;BME280;40636;52.424;-1.948;2022-07-18T09:57:24;100284.66;;;27.34;34.82
43364;BME280;40636;52.424;-1.948;2022-07-18T09:59:51;100282.31;;;27.36;36.59
43364;BME280;40636;52.424;-1.948;2022-07-18T10:02:19;100284.88;;;27.41;35.60
43364;BME280;40636;52.424;-1.948;2022-07-18T10:04:47;100287.00;;;27.44;35.77
43364;BME280;40636;52.424;-1.948;2022-07-18T10:07:15;100279.81;;;27.46;36.43
43364;BME280;40636;52.424;-1.948;2022-07-18T10:09:42;100282.97;;;27.57;35.22
43364;BME280;40636;52.424;-1.948;2022-07-18T10:12:14;100282.34;;;27.64;36.42
43364;BME280;40636;52.424;-1.948;2022-07-18T10:14:43;100277.50;;;27.76;35.37
43364;BME280;40636;52.424;-1.948;2022-07-18T10:17:10;100286.66;;;27.86;35.23
43364;BME280;40636;52.424;-1.948;2022-07-18T10:19:37;100279.81;;;27.87;35.27
43364;BME280;40636;52.424;-1.948;2022-07-18T10:22:07;100279.44;;;27.88;35.65
43364;BME280;40636;52.424;-1.948;2022-07-18T10:24:38;100277.53;;;27.92;34.75
43364;BME280;40636;52.424;-1.948;2022-07-18T10:27:17;100274.13;;;27.99;34.58
43364;BME280;40636;52.424;-1.948;2022-07-18T10:30:07;100271.41;;;28.02;35.63
43364;BME280;40636;52.424;-1.948;2022-07-18T10:32:35;100270.78;;;28.09;36.11
43364;BME280;40636;52.424;-1.948;2022-07-18T10:35:03;100272.72;;;28.21;35.48
43364;BME280;40636;52.424;-1.948;2022-07-18T10:37:31;100276.44;;;28.25;35.61
43364;BME280;40636;52.424;-1.948;2022-07-18T10:40:34;100277.00;;;28.30;34.77
43364;BME280;40636;52.424;-1.948;2022-07-18T10:45:58;100266.94;;;28.45;34.67
43364;BME280;40636;52.424;-1.948;2022-07-18T10:51:11;100269.13;;;28.68;34.73
43364;BME280;40636;52.424;-1.948;2022-07-18T10:53:58;100266.28;;;28.83;33.12
43364;BME280;40636;52.424;-1.948;2022-07-18T10:59:16;100257.91;;;29.03;34.51
43364;BME280;40636;52.424;-1.948;2022-07-18T11:01:51;100253.78;;;29.16;33.68
43364;BME280;40636;52.424;-1.948;2022-07-18T11:04:24;100250.28;;;29.23;34.13
43364;BME280;40636;52.424;-1.948;2022-07-18T11:07:09;100244.84;;;29.33;31.48
43364;BME280;40636;52.424;-1.948;2022-07-18T11:09:46;100250.38;;;29.46;31.07
43364;BME280;40636;52.424;-1.948;2022-07-18T11:12:43;100250.06;;;29.51;32.94
43364;BME280;40636;52.424;-1.948;2022-07-18T11:15:13;100249.06;;;29.59;31.37
43364;BME280;40636;52.424;-1.948;2022-07-18T11:23:03;100245.81;;;29.76;31.27
43364;BME280;40636;52.424;-1.948;2022-07-18T11:25:33;100247.59;;;29.85;30.55
43364;BME280;40636;52.424;-1.948;2022-07-18T11:28:20;100248.53;;;29.92;30.44
43364;BME280;40636;52.424;-1.948;2022-07-18T11:31:07;100246.22;;;29.98;29.97
43364;BME280;40636;52.424;-1.948;2022-07-18T11:33:38;100234.16;;;30.01;31.37
43364;BME280;40636;52.424;-1.948;2022-07-18T11:36:07;100237.78;;;30.01;32.55
43364;BME280;40636;52.424;-1.948;2022-07-18T11:38:38;100235.19;;;30.12;32.10
43364;BME280;40636;52.424;-1.948;2022-07-18T11:41:07;100234.44;;;30.15;30.43
43364;BME280;40636;52.424;-1.948;2022-07-18T11:43:34;100234.09;;;30.17;32.43
43364;BME280;40636;52.424;-1.948;2022-07-18T11:46:03;100232.19;;;30.24;31.46
43364;BME280;40636;52.424;-1.948;2022-07-18T11:48:32;100229.34;;;30.24;32.26
43364;BME280;40636;52.424;-1.948;2022-07-18T11:51:01;100232.31;;;30.31;30.65
43364;BME280;40636;52.424;-1.948;2022-07-18T11:54:04;100236.53;;;30.41;31.62
43364;BME280;40636;52.424;-1.948;2022-07-18T11:56:32;100227.34;;;30.48;31.18
43364;BME280;40636;52.424;-1.948;2022-07-18T11:58:59;100227.38;;;30.51;30.42
43364;BME280;40636;52.424;-1.948;2022-07-18T12:01:33;100226.16;;;30.49;31.19
43364;BME280;40636;52.424;-1.948;2022-07-18T12:04:00;100210.03;;;30.53;30.30
43364;BME280;40636;52.424;-1.948;2022-07-18T12:06:29;100222.25;;;30.57;31.21
43364;BME280;40636;52.424;-1.948;2022-07-18T12:08:57;100208.63;;;30.66;28.17
43364;BME280;40636;52.424;-1.948;2022-07-18T12:11:37;100214.44;;;30.73;29.66
43364;BME280;40636;52.424;-1.948;2022-07-18T12:14:16;100214.59;;;30.84;30.28
43364;BME280;40636;52.424;-1.948;2022-07-18T12:16:46;100209.78;;;30.88;30.23
43364;BME280;40636;52.424;-1.948;2022-07-18T12:22:04;100208.88;;;30.80;29.77
43364;BME280;40636;52.424;-1.948;2022-07-18T12:24:35;100204.19;;;30.92;29.31
43364;BME280;40636;52.424;-1.948;2022-07-18T12:30:09;100200.44;;;31.14;29.39
43364;BME280;40636;52.424;-1.948;2022-07-18T12:32:55;100200.56;;;31.21;29.23
43364;BME280;40636;52.424;-1.948;2022-07-18T12:35:31;100196.31;;;31.35;29.76
43364;BME280;40636;52.424;-1.948;2022-07-18T12:38:04;100194.34;;;31.39;27.58
43364;BME280;40636;52.424;-1.948;2022-07-18T12:40:51;100197.69;;;31.48;28.47
43364;BME280;40636;52.424;-1.948;2022-07-18T12:43:26;100192.09;;;31.55;27.48
43364;BME280;40636;52.424;-1.948;2022-07-18T12:45:55;100185.31;;;31.63;26.94
43364;BME280;40636;52.424;-1.948;2022-07-18T12:48:23;100186.53;;;31.66;28.02
43364;BME280;40636;52.424;-1.948;2022-07-18T12:51:04;100185.38;;;31.70;27.02
43364;BME280;40636;52.424;-1.948;2022-07-18T12:53:33;100181.34;;;31.71;26.21
43364;BME280;40636;52.424;-1.948;2022-07-18T12:56:01;100189.06;;;31.74;27.60
43364;BME280;40636;52.424;-1.948;2022-07-18T12:58:29;100185.13;;;31.82;26.40
43364;BME280;40636;52.424;-1.948;2022-07-18T13:00:56;100183.47;;;31.81;27.05
43364;BME280;40636;52.424;-1.948;2022-07-18T13:03:33;100183.59;;;31.89;24.33
43364;BME280;40636;52.424;-1.948;2022-07-18T13:06:02;100173.44;;;31.88;25.44
43364;BME280;40636;52.424;-1.948;2022-07-18T13:08:29;100170.47;;;31.77;27.18
43364;BME280;40636;52.424;-1.948;2022-07-18T13:10:58;100173.59;;;31.68;25.91
43364;BME280;40636;52.424;-1.948;2022-07-18T13:13:25;100168.34;;;31.70;27.12
43364;BME280;40636;52.424;-1.948;2022-07-18T13:15:53;100170.84;;;31.75;26.79